sensor_id;sensor_type;location;lat;lon;timestamp;pressure;altitude;pressure_sealevel;temperature;humidity
24013;BME280;12220;50.194;18.948;2023-06-14T00:01:19;101807.73;;;12.60;65.53
24013;BME280;12220;50.194;18.948;2023-06-14T00:03:29;101813.51;;;12.55;65.04
24013;BME280;12220;50.194;18.948;2023-06-14T00:05:32;101813.86;;;12.49;65.09
24013;BME280;12220;50.194;18.948;2023-06-14T00:07:43;101814.24;;;12.43;65.47
24013;BME280;12220;50.194;18.948;2023-06-14T00:09:44;101806.29;;;12.38;65.52
24013;BME280;12220;50.194;18.948;2023-06-14T00:11:48;101808.36;;;12.35;65.60
24013;BME280;12220;50.194;18.948;2023-06-14T00:13:49;101814.10;;;12.30;65.68
24013;BME280;12220;50.194;18.948;2023-06-14T00:15:51;101815.20;;;12.28;65.83
24013;BME280;12220;50.194;18.948;2023-06-14T00:17:56;101810.76;;;12.25;65.94
24013;BME280;12220;50.194;18.948;2023-06-14T00:20:04;101807.30;;;12.21;66.03
24013;BME280;12220;50.194;18.948;2023-06-14T00:22:08;101807.58;;;12.17;66.13
24013;BME280;12220;50.194;18.948;2023-06-14T00:24:10;101802.19;;;12.15;66.35
24013;BME280;12220;50.194;18.948;2023-06-14T00:26:11;101808.48;;;12.17;66.55
24013;BME280;12220;50.194;18.948;2023-06-14T00:29:14;101805.56;;;12.20;66.51
24013;BME280;12220;50.194;18.948;2023-06-14T00:31:15;101794.48;;;12.22;66.57
24013;BME280;12220;50.194;18.948;2023-06-14T00:33:16;101800.66;;;12.26;66.55
24013;BME280;12220;50.194;18.948;2023-06-14T00:35:18;101802.44;;;12.27;66.53
24013;BME280;12220;50.194;18.948;2023-06-14T00:37:20;101797.62;;;12.30;66.57
24013;BME280;12220;50.194;18.948;2023-06-14T00:39:21;101802.96;;;12.33;66.56
24013;BME280;12220;50.194;18.948;2023-06-14T00:41:24;101799.12;;;12.36;66.47
24013;BME280;12220;50.194;18.948;2023-06-14T00:43:26;101800.99;;;12.35;66.37
24013;BME280;12220;50.194;18.948;2023-06-14T00:45:27;101790.88;;;12.36;66.34
24013;BME280;12220;50.194;18.948;2023-06-14T00:47:32;101791.78;;;12.36;66.38
24013;BME280;12220;50.194;18.948;2023-06-14T00:49:39;101791.78;;;12.36;66.32
24013;BME280;12220;50.194;18.948;2023-06-14T00:51:43;101785.48;;;12.34;66.39
24013;BME280;12220;50.194;18.948;2023-06-14T00:53:45;101789.13;;;12.35;66.38
24013;BME280;12220;50.194;18.948;2023-06-14T00:55:49;101787.27;;;12.35;66.48
24013;BME280;12220;50.194;18.948;2023-06-14T00:57:55;101794.63;;;12.35;66.51
24013;BME280;12220;50.194;18.948;2023-06-14T00:59:57;101789.04;;;12.36;66.55
24013;BME280;12220;50.194;18.948;2023-06-14T01:01:58;101792.56;;;12.38;66.51
24013;BME280;12220;50.194;18.948;2023-06-14T01:04:00;101787.94;;;12.39;66.54
24013;BME280;12220;50.194;18.948;2023-06-14T01:11:01;101779.54;;;12.42;66.44
24013;BME280;12220;50.194;18.948;2023-06-14T01:13:08;101783.16;;;12.43;66.44
24013;BME280;12220;50.194;18.948;2023-06-14T01:15:13;101788.55;;;12.44;66.37
24013;BME280;12220;50.194;18.948;2023-06-14T01:17:14;101771.11;;;12.45;66.31
24013;BME280;12220;50.194;18.948;2023-06-14T01:19:19;101775.60;;;12.46;66.16
24013;BME280;12220;50.194;18.948;2023-06-14T01:21:26;101781.29;;;12.43;65.99
24013;BME280;12220;50.194;18.948;2023-06-14T01:23:30;101777.95;;;12.38;65.87
24013;BME280;12220;50.194;18.948;2023-06-14T01:25:33;101790.29;;;12.31;65.95
24013;BME280;12220;50.194;18.948;2023-06-14T01:27:38;101782.49;;;12.23;66.16
24013;BME280;12220;50.194;18.948;2023-06-14T01:29:40;101789.09;;;12.20;66.41
24013;BME280;12220;50.194;18.948;2023-06-14T01:31:47;101784.55;;;12.19;66.56
24013;BME280;12220;50.194;18.948;2023-06-14T01:33:49;101783.69;;;12.19;66.55
24013;BME280;12220;50.194;18.948;2023-06-14T01:35:52;101786.34;;;12.20;66.48
24013;BME280;12220;50.194;18.948;2023-06-14T01:37:55;101779.06;;;12.19;66.42
24013;BME280;12220;50.194;18.948;2023-06-14T01:39:56;101783.59;;;12.20;66.42
24013;BME280;12220;50.194;18.948;2023-06-14T01:41:59;101785.34;;;12.21;66.40
24013;BME280;12220;50.194;18.948;2023-06-14T01:44:06;101784.37;;;12.23;66.31
24013;BME280;12220;50.194;18.948;2023-06-14T01:46:09;101782.49;;;12.23;66.25
24013;BME280;12220;50.194;18.948;2023-06-14T01:48:11;101777.00;;;12.23;66.22
24013;BME280;12220;50.194;18.948;2023-06-14T01:50:13;101777.10;;;12.21;66.12
24013;BME280;12220;50.194;18.948;2023-06-14T01:52:21;101775.45;;;12.19;66.00
24013;BME280;12220;50.194;18.948;2023-06-14T01:54:25;101771.11;;;12.15;65.99
24013;BME280;12220;50.194;18.948;2023-06-14T01:56:26;101766.68;;;12.12;65.96
24013;BME280;12220;50.194;18.948;2023-06-14T01:58:28;101775.88;;;12.11;66.00
24013;BME280;12220;50.194;18.948;2023-06-14T02:00:36;101780.51;;;12.11;65.90
24013;BME280;12220;50.194;18.948;2023-06-14T02:02:38;101780.59;;;12.09;65.91
24013;BME280;12220;50.194;18.948;2023-06-14T02:04:40;101777.95;;;12.08;65.85
24013;BME280;12220;50.194;18.948;2023-06-14T02:06:41;101776.27;;;12.05;65.77
24013;BME280;12220;50.194;18.948;2023-06-14T02:08:51;101768.22;;;12.02;65.81
24013;BME280;12220;50.194;18.948;2023-06-14T02:10:52;101774.67;;;12.01;65.92
24013;BME280;12220;50.194;18.948;2023-06-14T02:12:55;101760.16;;;11.99;66.00
24013;BME280;12220;50.194;18.948;2023-06-14T02:14:56;101777.50;;;11.99;66.04
24013;BME280;12220;50.194;18.948;2023-06-14T02:17:06;101776.63;;;11.99;66.00
24013;BME280;12220;50.194;18.948;2023-06-14T02:19:08;101769.46;;;11.96;65.98
24013;BME280;12220;50.194;18.948;2023-06-14T02:21:10;101768.59;;;11.96;65.98
24013;BME280;12220;50.194;18.948;2023-06-14T02:23:11;101766.81;;;11.95;65.94
24013;BME280;12220;50.194;18.948;2023-06-14T02:25:21;101762.43;;;11.91;65.95
24013;BME280;12220;50.194;18.948;2023-06-14T02:27:22;101773.60;;;11.88;66.05
24013;BME280;12220;50.194;18.948;2023-06-14T02:29:23;101771.05;;;11.84;66.15
24013;BME280;12220;50.194;18.948;2023-06-14T02:31:26;101769.17;;;11.85;66.20
24013;BME280;12220;50.194;18.948;2023-06-14T02:33:36;101767.42;;;11.84;66.13
24013;BME280;12220;50.194;18.948;2023-06-14T02:35:38;101771.14;;;11.83;66.21
24013;BME280;12220;50.194;18.948;2023-06-14T02:37:39;101768.48;;;11.81;66.38
24013;BME280;12220;50.194;18.948;2023-06-14T02:39:40;101772.20;;;11.80;66.51
24013;BME280;12220;50.194;18.948;2023-06-14T02:41:51;101770.27;;;11.82;66.59
24013;BME280;12220;50.194;18.948;2023-06-14T02:43:53;101766.62;;;11.82;66.59
24013;BME280;12220;50.194;18.948;2023-06-14T02:45:54;101772.20;;;11.80;66.65
24013;BME280;12220;50.194;18.948;2023-06-14T02:47:56;101770.41;;;11.79;66.70
24013;BME280;12220;50.194;18.948;2023-06-14T02:50:07;101775.13;;;11.77;66.70
24013;BME280;12220;50.194;18.948;2023-06-14T02:52:08;101768.85;;;11.75;66.82
24013;BME280;12220;50.194;18.948;2023-06-14T02:54:10;101769.82;;;11.74;66.93
24013;BME280;12220;50.194;18.948;2023-06-14T02:56:11;101775.41;;;11.73;67.14
24013;BME280;12220;50.194;18.948;2023-06-14T02:58:21;101768.85;;;11.75;67.20
24013;BME280;12220;50.194;18.948;2023-06-14T03:00:22;101770.51;;;11.78;67.28
24013;BME280;12220;50.194;18.948;2023-06-14T03:02:24;101766.70;;;11.80;67.26
24013;BME280;12220;50.194;18.948;2023-06-14T03:04:25;101766.62;;;11.82;67.25
24013;BME280;12220;50.194;18.948;2023-06-14T03:06:36;101763.97;;;11.80;67.31
24013;BME280;12220;50.194;18.948;2023-06-14T03:08:37;101771.52;;;11.77;67.56
24013;BME280;12220;50.194;18.948;2023-06-14T03:10:49;101762.38;;;11.76;67.82
24013;BME280;12220;50.194;18.948;2023-06-14T03:12:50;101759.44;;;11.79;68.01
24013;BME280;12220;50.194;18.948;2023-06-14T03:14:55;101764.68;;;11.84;68.12
24013;BME280;12220;50.194;18.948;2023-06-14T03:16:57;101756.16;;;11.89;68.19
24013;BME280;12220;50.194;18.948;2023-06-14T03:19:01;101768.68;;;11.94;68.17
24013;BME280;12220;50.194;18.948;2023-06-14T03:21:02;101768.59;;;11.96;68.07
24013;BME280;12220;50.194;18.948;2023-06-14T03:23:06;101775.05;;;11.95;68.02
24013;BME280;12220;50.194;18.948;2023-06-14T03:25:08;101773.27;;;11.94;68.17
24013;BME280;12220;50.194;18.948;2023-06-14T03:27:11;101772.30;;;11.95;68.27
24013;BME280;12220;50.194;18.948;2023-06-14T03:29:13;101766.81;;;11.95;68.32
24013;BME280;12220;50.194;18.948;2023-06-14T03:31:21;101768.59;;;11.96;68.38
24013;BME280;12220;50.194;18.948;2023-06-14T03:33:22;101767.68;;;11.95;68.54
24013;BME280;12220;50.194;18.948;2023-06-14T03:35:26;101771.33;;;11.96;68.66
24013;BME280;12220;50.194;18.948;2023-06-14T03:37:27;101774.85;;;11.98;68.83
24013;BME280;12220;50.194;18.948;2023-06-14T03:39:36;101771.92;;;12.01;68.87
24013;BME280;12220;50.194;18.948;2023-06-14T03:41:38;101768.99;;;12.04;68.95
24013;BME280;12220;50.194;18.948;2023-06-14T03:43:39;101724.77;;;11.78;69.03
24013;BME280;12220;50.194;18.948;2023-06-14T03:45:40;101782.38;;;12.10;69.10
24013;BME280;12220;50.194;18.948;2023-06-14T03:47:51;101786.88;;;12.11;69.16
24013;BME280;12220;50.194;18.948;2023-06-14T03:49:53;101770.40;;;12.11;69.30
24013;BME280;12220;50.194;18.948;2023-06-14T03:51:54;101775.88;;;12.11;69.29
24013;BME280;12220;50.194;18.948;2023-06-14T03:53:56;101776.70;;;12.13;69.50
24013;BME280;12220;50.194;18.948;2023-06-14T03:56:06;101771.98;;;12.15;69.64
24013;BME280;12220;50.194;18.948;2023-06-14T03:58:09;101768.27;;;12.16;69.80
24013;BME280;12220;50.194;18.948;2023-06-14T04:00:11;101768.95;;;12.20;69.93
24013;BME280;12220;50.194;18.948;2023-06-14T04:02:13;101767.70;;;12.26;69.99
24013;BME280;12220;50.194;18.948;2023-06-14T04:04:21;101765.57;;;12.31;69.92
24013;BME280;12220;50.194;18.948;2023-06-14T04:06:22;101779.89;;;12.36;70.02
24013;BME280;12220;50.194;18.948;2023-06-14T04:08:30;101774.05;;;12.42;70.05
24013;BME280;12220;50.194;18.948;2023-06-14T04:10:31;101769.13;;;12.47;70.10
24013;BME280;12220;50.194;18.948;2023-06-14T04:12:47;101777.89;;;12.54;70.10
24013;BME280;12220;50.194;18.948;2023-06-14T04:14:57;101781.02;;;12.62;70.08
24013;BME280;12220;50.194;18.948;2023-06-14T04:17:04;101781.55;;;12.69;70.06
24013;BME280;12220;50.194;18.948;2023-06-14T04:19:06;101785.77;;;12.75;70.02
24013;BME280;12220;50.194;18.948;2023-06-14T04:21:07;101786.45;;;12.78;70.12
24013;BME280;12220;50.194;18.948;2023-06-14T04:23:16;101810.02;;;12.82;70.12
24013;BME280;12220;50.194;18.948;2023-06-14T04:25:19;101788.04;;;12.82;70.14
24013;BME280;12220;50.194;18.948;2023-06-14T04:27:22;101788.90;;;12.83;70.26
24013;BME280;12220;50.194;18.948;2023-06-14T04:29:27;101786.09;;;12.84;70.36
24013;BME280;12220;50.194;18.948;2023-06-14T04:31:30;101785.89;;;12.87;70.63
24013;BME280;12220;50.194;18.948;2023-06-14T04:33:37;101788.54;;;12.89;70.39
24013;BME280;12220;50.194;18.948;2023-06-14T04:35:46;101784.79;;;12.90;70.41
24013;BME280;12220;50.194;18.948;2023-06-14T04:37:49;101787.44;;;12.91;70.48
24013;BME280;12220;50.194;18.948;2023-06-14T04:39:52;101782.74;;;12.94;70.53
24013;BME280;12220;50.194;18.948;2023-06-14T04:41:53;101778.92;;;12.96;70.65
24013;BME280;12220;50.194;18.948;2023-06-14T04:43:58;101773.02;;;13.02;70.73
24013;BME280;12220;50.194;18.948;2023-06-14T04:46:07;101777.25;;;13.08;70.76
24013;BME280;12220;50.194;18.948;2023-06-14T04:48:12;101779.59;;;13.14;70.76
24013;BME280;12220;50.194;18.948;2023-06-14T04:50:13;101771.14;;;13.17;70.76
24013;BME280;12220;50.194;18.948;2023-06-14T04:52:17;101770.08;;;13.20;70.77
24013;BME280;12220;50.194;18.948;2023-06-14T04:54:21;101772.61;;;13.23;70.62
24013;BME280;12220;50.194;18.948;2023-06-14T04:56:23;101782.34;;;13.29;70.80
24013;BME280;12220;50.194;18.948;2023-06-14T04:58:27;101783.84;;;13.34;70.82
24013;BME280;12220;50.194;18.948;2023-06-14T05:00:29;101777.83;;;13.42;70.83
24013;BME280;12220;50.194;18.948;2023-06-14T05:02:31;101784.80;;;13.48;70.79
24013;BME280;12220;50.194;18.948;2023-06-14T05:04:37;101778.88;;;13.54;70.71
24013;BME280;12220;50.194;18.948;2023-06-14T05:06:41;101775.82;;;13.58;70.67
24013;BME280;12220;50.194;18.948;2023-06-14T05:08:45;101782.89;;;13.63;70.69
24013;BME280;12220;50.194;18.948;2023-06-14T05:10:46;101791.74;;;13.68;70.71
24013;BME280;12220;50.194;18.948;2023-06-14T05:12:51;101781.40;;;13.71;70.69
24013;BME280;12220;50.194;18.948;2023-06-14T05:14:55;101785.71;;;13.75;70.70
24013;BME280;12220;50.194;18.948;2023-06-14T05:16:59;101796.30;;;13.82;70.71
24013;BME280;12220;50.194;18.948;2023-06-14T05:19:00;101793.27;;;13.86;70.67
24013;BME280;12220;50.194;18.948;2023-06-14T05:21:06;101787.45;;;13.91;70.62
24013;BME280;12220;50.194;18.948;2023-06-14T05:23:09;101794.59;;;13.93;70.60
24013;BME280;12220;50.194;18.948;2023-06-14T05:25:15;101794.41;;;13.97;70.57
24013;BME280;12220;50.194;18.948;2023-06-14T05:27:17;101793.40;;;13.98;70.59
24013;BME280;12220;50.194;18.948;2023-06-14T05:29:22;101798.91;;;13.98;70.58
24013;BME280;12220;50.194;18.948;2023-06-14T05:31:24;101795.38;;;13.95;70.68
24013;BME280;12220;50.194;18.948;2023-06-14T05:33:30;101798.04;;;13.97;70.73
24013;BME280;12220;50.194;18.948;2023-06-14T05:35:31;101805.32;;;13.98;70.91
24013;BME280;12220;50.194;18.948;2023-06-14T05:37:36;101811.70;;;13.99;70.92
24013;BME280;12220;50.194;18.948;2023-06-14T05:39:38;101814.55;;;13.97;71.02
24013;BME280;12220;50.194;18.948;2023-06-14T05:41:39;101817.98;;;14.01;71.16
24013;BME280;12220;50.194;18.948;2023-06-14T05:43:40;101817.80;;;14.04;71.27
24013;BME280;12220;50.194;18.948;2023-06-14T05:45:51;101807.34;;;14.09;71.31
24013;BME280;12220;50.194;18.948;2023-06-14T05:47:52;101808.90;;;14.13;71.33
24013;BME280;12220;50.194;18.948;2023-06-14T05:49:55;101811.33;;;14.18;71.46
24013;BME280;12220;50.194;18.948;2023-06-14T05:51:56;101808.58;;;14.18;71.44
24013;BME280;12220;50.194;18.948;2023-06-14T05:54:06;101804.63;;;14.22;71.44
24013;BME280;12220;50.194;18.948;2023-06-14T06:01:09;101812.36;;;14.29;71.50
24013;BME280;12220;50.194;18.948;2023-06-14T06:03:11;101810.30;;;14.33;71.49
24013;BME280;12220;50.194;18.948;2023-06-14T06:05:21;101812.93;;;14.35;71.46
24013;BME280;12220;50.194;18.948;2023-06-14T06:07:22;101815.48;;;14.38;71.52
24013;BME280;12220;50.194;18.948;2023-06-14T06:09:23;101810.73;;;14.40;71.54
24013;BME280;12220;50.194;18.948;2023-06-14T06:11:25;101811.42;;;14.43;71.54
24013;BME280;12220;50.194;18.948;2023-06-14T06:13:36;101814.05;;;14.45;71.50
24013;BME280;12220;50.194;18.948;2023-06-14T06:15:37;101817.80;;;14.44;71.51
24013;BME280;12220;50.194;18.948;2023-06-14T06:17:39;101810.51;;;14.43;71.57
24013;BME280;12220;50.194;18.948;2023-06-14T06:19:40;101813.16;;;14.44;71.64
24013;BME280;12220;50.194;18.948;2023-06-14T06:21:51;101811.09;;;14.48;71.71
24013;BME280;12220;50.194;18.948;2023-06-14T06:23:52;101817.48;;;14.48;71.68
24013;BME280;12220;50.194;18.948;2023-06-14T06:25:53;101820.02;;;14.52;71.71
24013;BME280;12220;50.194;18.948;2023-06-14T06:27:58;101820.92;;;14.52;71.72
24013;BME280;12220;50.194;18.948;2023-06-14T06:30:06;101828.17;;;14.53;71.71
24013;BME280;12220;50.194;18.948;2023-06-14T06:32:08;101826.97;;;14.57;71.71
24013;BME280;12220;50.194;18.948;2023-06-14T06:34:09;101827.77;;;14.59;71.78
24013;BME280;12220;50.194;18.948;2023-06-14T06:36:10;101838.49;;;14.64;71.72
24013;BME280;12220;50.194;18.948;2023-06-14T06:38:20;101835.52;;;14.67;71.69
24013;BME280;12220;50.194;18.948;2023-06-14T06:40:22;101833.63;;;14.68;71.72
24013;BME280;12220;50.194;18.948;2023-06-14T06:42:23;101835.52;;;14.67;71.71
24013;BME280;12220;50.194;18.948;2023-06-14T06:44:25;101829.90;;;14.69;71.76
24013;BME280;12220;50.194;18.948;2023-06-14T06:46:36;101838.17;;;14.69;71.77
24013;BME280;12220;50.194;18.948;2023-06-14T06:48:41;101847.20;;;14.71;71.82
24013;BME280;12220;50.194;18.948;2023-06-14T06:50:43;101838.06;;;14.70;71.86
24013;BME280;12220;50.194;18.948;2023-06-14T06:52:47;101838.17;;;14.69;71.93
24013;BME280;12220;50.194;18.948;2023-06-14T06:54:51;101839.16;;;14.68;71.91
24013;BME280;12220;50.194;18.948;2023-06-14T06:56:56;101842.13;;;14.64;72.00
24013;BME280;12220;50.194;18.948;2023-06-14T06:59:01;101840.39;;;14.63;72.14
24013;BME280;12220;50.194;18.948;2023-06-14T07:01:02;101839.37;;;14.64;72.24
24013;BME280;12220;50.194;18.948;2023-06-14T07:03:05;101843.91;;;14.66;72.30
24013;BME280;12220;50.194;18.948;2023-06-14T07:05:07;101842.13;;;14.64;72.34
24013;BME280;12220;50.194;18.948;2023-06-14T07:07:09;101841.14;;;14.66;72.49
24013;BME280;12220;50.194;18.948;2023-06-14T07:09:13;101850.29;;;14.66;72.59
24013;BME280;12220;50.194;18.948;2023-06-14T07:11:20;101851.96;;;14.69;72.69
24013;BME280;12220;50.194;18.948;2023-06-14T07:13:21;101846.22;;;14.72;72.84
24013;BME280;12220;50.194;18.948;2023-06-14T07:15:23;101850.54;;;14.76;72.99
24013;BME280;12220;50.194;18.948;2023-06-14T07:17:24;101850.32;;;14.79;73.04
24013;BME280;12220;50.194;18.948;2023-06-14T07:19:35;101849.98;;;14.84;73.12
24013;BME280;12220;50.194;18.948;2023-06-14T07:21:36;101851.44;;;14.89;73.25
24013;BME280;12220;50.194;18.948;2023-06-14T07:23:41;101853.86;;;14.94;73.28
24013;BME280;12220;50.194;18.948;2023-06-14T07:25:42;101857.19;;;14.99;73.38
24013;BME280;12220;50.194;18.948;2023-06-14T07:27:50;101635.39;;;13.73;73.18
24013;BME280;12220;50.194;18.948;2023-06-14T07:29:52;101855.88;;;15.05;73.39
24013;BME280;12220;50.194;18.948;2023-06-14T07:31:53;101859.16;;;15.10;73.49
24013;BME280;12220;50.194;18.948;2023-06-14T07:33:54;101858.95;;;15.13;73.64
24013;BME280;12220;50.194;18.948;2023-06-14T07:36:05;101868.88;;;15.15;73.54
24013;BME280;12220;50.194;18.948;2023-06-14T07:38:07;101865.02;;;15.18;73.56
24013;BME280;12220;50.194;18.948;2023-06-14T07:40:09;101864.70;;;15.23;73.63
24013;BME280;12220;50.194;18.948;2023-06-14T07:42:11;101866.13;;;15.28;73.67
24013;BME280;12220;50.194;18.948;2023-06-14T07:44:20;101863.83;;;15.35;73.58
24013;BME280;12220;50.194;18.948;2023-06-14T07:46:21;101868.20;;;15.38;73.44
24013;BME280;12220;50.194;18.948;2023-06-14T07:48:23;101874.52;;;15.40;73.35
24013;BME280;12220;50.194;18.948;2023-06-14T07:50:24;101881.70;;;15.42;73.29
24013;BME280;12220;50.194;18.948;2023-06-14T07:52:35;101873.30;;;15.44;73.17
24013;BME280;12220;50.194;18.948;2023-06-14T07:54:37;101875.95;;;15.45;73.21
24013;BME280;12220;50.194;18.948;2023-06-14T07:56:38;101875.84;;;15.47;73.24
24013;BME280;12220;50.194;18.948;2023-06-14T07:58:40;101882.46;;;15.44;73.23
24013;BME280;12220;50.194;18.948;2023-06-14T08:00:50;101880.57;;;15.45;73.24
24013;BME280;12220;50.194;18.948;2023-06-14T08:02:52;101883.45;;;15.43;73.21
24013;BME280;12220;50.194;18.948;2023-06-14T08:05:00;101878.04;;;15.42;73.47
24013;BME280;12220;50.194;18.948;2023-06-14T08:07:02;101879.05;;;15.41;73.50
24013;BME280;12220;50.194;18.948;2023-06-14T08:09:05;101878.38;;;15.37;73.56
24013;BME280;12220;50.194;18.948;2023-06-14T08:11:06;101885.68;;;15.38;73.73
24013;BME280;12220;50.194;18.948;2023-06-14T08:13:07;101879.81;;;15.43;73.87
24013;BME280;12220;50.194;18.948;2023-06-14T08:15:10;101873.20;;;15.45;73.92
24013;BME280;12220;50.194;18.948;2023-06-14T08:17:20;101875.73;;;15.48;73.75
24013;BME280;12220;50.194;18.948;2023-06-14T08:19:21;101868.20;;;15.50;73.68
24013;BME280;12220;50.194;18.948;2023-06-14T08:21:23;101867.10;;;15.53;73.67
24013;BME280;12220;50.194;18.948;2023-06-14T08:23:24;101873.30;;;15.57;73.61
24013;BME280;12220;50.194;18.948;2023-06-14T08:25:35;101877.57;;;15.61;73.55
24013;BME280;12220;50.194;18.948;2023-06-14T08:27:36;101877.27;;;15.65;73.54
24013;BME280;12220;50.194;18.948;2023-06-14T08:29:38;101869.73;;;15.67;73.49
24013;BME280;12220;50.194;18.948;2023-06-14T08:31:42;101865.75;;;15.72;73.38
24013;BME280;12220;50.194;18.948;2023-06-14T08:33:49;101663.83;;;14.52;73.24
24013;BME280;12220;50.194;18.948;2023-06-14T08:35:51;101871.91;;;15.75;73.34
24013;BME280;12220;50.194;18.948;2023-06-14T08:37:52;101870.82;;;15.78;73.25
24013;BME280;12220;50.194;18.948;2023-06-14T08:39:54;101872.63;;;15.79;73.14
24013;BME280;12220;50.194;18.948;2023-06-14T08:42:05;101876.92;;;15.83;73.09
24013;BME280;12220;50.194;18.948;2023-06-14T08:44:08;101876.81;;;15.84;73.13
24013;BME280;12220;50.194;18.948;2023-06-14T08:46:10;101883.84;;;15.89;73.19
24013;BME280;12220;50.194;18.948;2023-06-14T08:48:18;101878.88;;;15.94;73.21
24013;BME280;12220;50.194;18.948;2023-06-14T08:50:22;101876.55;;;16.00;73.13
24013;BME280;12220;50.194;18.948;2023-06-14T08:52:28;101884.37;;;16.07;73.04
24013;BME280;12220;50.194;18.948;2023-06-14T08:54:35;101888.55;;;16.12;72.91
24013;BME280;12220;50.194;18.948;2023-06-14T08:56:44;101893.61;;;16.18;72.83
24013;BME280;12220;50.194;18.948;2023-06-14T08:58:49;101900.66;;;16.23;72.72
24013;BME280;12220;50.194;18.948;2023-06-14T09:01:04;101893.01;;;16.26;72.57
24013;BME280;12220;50.194;18.948;2023-06-14T09:03:08;101905.73;;;16.29;72.36
24013;BME280;12220;50.194;18.948;2023-06-14T09:05:15;101903.84;;;16.29;72.20
24013;BME280;12220;50.194;18.948;2023-06-14T09:07:19;101911.25;;;16.29;72.11
24013;BME280;12220;50.194;18.948;2023-06-14T09:09:23;101908.25;;;16.32;71.95
24013;BME280;12220;50.194;18.948;2023-06-14T09:11:26;101906.60;;;16.29;71.88
24013;BME280;12220;50.194;18.948;2023-06-14T09:13:28;101910.26;;;16.30;71.83
24013;BME280;12220;50.194;18.948;2023-06-14T09:15:30;101914.88;;;16.29;71.78
24013;BME280;12220;50.194;18.948;2023-06-14T09:17:40;101912.13;;;16.29;71.76
24013;BME280;12220;50.194;18.948;2023-06-14T09:19:41;101914.14;;;16.27;71.81
24013;BME280;12220;50.194;18.948;2023-06-14T09:21:47;101917.65;;;16.29;71.81
24013;BME280;12220;50.194;18.948;2023-06-14T09:23:48;101918.43;;;16.31;71.81
24013;BME280;12220;50.194;18.948;2023-06-14T09:25:50;101919.07;;;16.35;71.82
24013;BME280;12220;50.194;18.948;2023-06-14T09:27:51;101913.30;;;16.38;71.88
24013;BME280;12220;50.194;18.948;2023-06-14T09:29:53;101913.97;;;16.42;71.88
24013;BME280;12220;50.194;18.948;2023-06-14T09:31:54;101918.27;;;16.46;71.84
24013;BME280;12220;50.194;18.948;2023-06-14T09:34:04;101913.49;;;16.48;71.79
24013;BME280;12220;50.194;18.948;2023-06-14T09:36:12;101911.59;;;16.48;71.83
24013;BME280;12220;50.194;18.948;2023-06-14T09:38:13;101911.40;;;16.51;71.93
24013;BME280;12220;50.194;18.948;2023-06-14T09:40:20;101913.80;;;16.56;72.01
24013;BME280;12220;50.194;18.948;2023-06-14T09:42:24;101913.32;;;16.62;71.92
24013;BME280;12220;50.194;18.948;2023-06-14T09:44:26;101914.85;;;16.66;71.71
24013;BME280;12220;50.194;18.948;2023-06-14T09:46:31;101908.33;;;16.67;71.53
24013;BME280;12220;50.194;18.948;2023-06-14T09:48:32;101905.43;;;16.69;71.54
24013;BME280;12220;50.194;18.948;2023-06-14T09:50:36;101905.32;;;16.70;71.36
24013;BME280;12220;50.194;18.948;2023-06-14T09:52:37;101906.19;;;16.71;71.22
24013;BME280;12220;50.194;18.948;2023-06-14T09:54:43;101912.59;;;16.71;71.05
24013;BME280;12220;50.194;18.948;2023-06-14T09:56:48;101913.49;;;16.72;70.97
24013;BME280;12220;50.194;18.948;2023-06-14T09:58:56;101908.83;;;16.72;70.90
24013;BME280;12220;50.194;18.948;2023-06-14T10:00:59;101913.38;;;16.73;70.79
24013;BME280;12220;50.194;18.948;2023-06-14T10:03:05;101910.60;;;16.73;70.75
24013;BME280;12220;50.194;18.948;2023-06-14T10:05:11;101916.02;;;16.75;70.65
24013;BME280;12220;50.194;18.948;2023-06-14T10:07:19;101923.20;;;16.78;70.57
24013;BME280;12220;50.194;18.948;2023-06-14T10:09:28;101915.77;;;16.78;70.59
24013;BME280;12220;50.194;18.948;2023-06-14T10:11:31;101914.78;;;16.79;70.65
24013;BME280;12220;50.194;18.948;2023-06-14T10:13:32;101913.63;;;16.82;70.59
24013;BME280;12220;50.194;18.948;2023-06-14T10:17:55;101910.98;;;16.80;70.40
24013;BME280;12220;50.194;18.948;2023-06-14T10:22:41;101924.44;;;16.73;70.24
24013;BME280;12220;50.194;18.948;2023-06-14T10:24:46;101927.20;;;16.73;70.36
24013;BME280;12220;50.194;18.948;2023-06-14T10:26:53;101917.13;;;16.72;70.34
24013;BME280;12220;50.194;18.948;2023-06-14T10:29:01;101919.77;;;16.74;70.37
24013;BME280;12220;50.194;18.948;2023-06-14T10:31:03;101916.88;;;16.76;70.40
24013;BME280;12220;50.194;18.948;2023-06-14T10:33:08;101913.13;;;16.77;70.34
24013;BME280;12220;50.194;18.948;2023-06-14T10:35:16;101919.65;;;16.76;70.31
24013;BME280;12220;50.194;18.948;2023-06-14T10:37:17;101914.91;;;16.78;70.35
24013;BME280;12220;50.194;18.948;2023-06-14T10:39:19;101918.05;;;16.84;70.47
24013;BME280;12220;50.194;18.948;2023-06-14T10:41:22;101916.73;;;16.90;70.48
24013;BME280;12220;50.194;18.948;2023-06-14T10:43:24;101908.05;;;16.95;70.54
24013;BME280;12220;50.194;18.948;2023-06-14T10:45:25;101904.70;;;17.02;70.49
24013;BME280;12220;50.194;18.948;2023-06-14T10:47:34;101898.55;;;17.10;70.23
24013;BME280;12220;50.194;18.948;2023-06-14T10:49:42;101908.76;;;17.21;69.96
24013;BME280;12220;50.194;18.948;2023-06-14T10:51:45;101895.32;;;17.28;69.66
24013;BME280;12220;50.194;18.948;2023-06-14T10:53:50;101894.56;;;17.37;69.44
24013;BME280;12220;50.194;18.948;2023-06-14T10:55:52;101885.53;;;17.46;69.15